Dario Filipe — CUHY7 — position and weather

sailwx.info

Track history (hours):
 
Tides and Currents Weather Stations Pressure Air Temp Water Temp Dewpoint Dewpoint Depression Visibility Wind Speed Wind Dir Waves Ship Positions

Dario Filipe

Last reported at 2018-Feb-10 14:53 UTC. Time now 2018-Feb-25 00:19 UTC.
Position N 39°09' W 009°26'.
Warning: this ship's position is 14 days out of date.

Length 24 m.

Type: Fishing. MMSI: 263414640.

Date/timePositionNaut miles runAvg speedWind from/ knotsBaromVisibWave heightAir tempDewpointWater temp
2018-Feb-10 14:53N 39°09' W 009°26'2 6.4
2018-Feb-10 14:30N 39°06' W 009°26'4 6.2
2018-Feb-10 13:51N 39°02' W 009°27'2 6.3
2018-Feb-10 13:30N 39°00' W 009°28'3 6.1
2018-Feb-10 13:00N 38°57' W 009°29'3 5.8
2018-Feb-10 12:30N 38°55' W 009°29'3 5.5
2018-Feb-10 12:00N 38°52' W 009°30'3 5.3
2018-Feb-10 11:30N 38°49' W 009°31'2 5.0
2018-Feb-10 11:01N 38°47' W 009°31'3 5.0
2018-Feb-10 10:29N 38°44' W 009°32'3 5.1
2018-Feb-10 10:00N 38°42' W 009°32'3 5.6
2018-Feb-10 09:30N 38°39' W 009°30'3 6.8
2018-Feb-10 09:00N 38°37' W 009°27'4 7.2
2018-Feb-10 08:30N 38°34' W 009°24'3 6.8
2018-Feb-10 08:00N 38°31' W 009°21'3 6.8
2018-Feb-10 07:30N 38°29' W 009°19'3 6.9
2018-Feb-10 07:00N 38°26' W 009°16'3 6.5
2018-Feb-10 06:29N 38°24' W 009°13'4 7.1
2018-Feb-10 05:53N 38°25' W 009°08'2 4.1
2018-Feb-10 05:29N 38°26' W 009°07'0 0.0
2018-Feb-10 04:57N 38°26' W 009°07'0 0.0
2018-Feb-10 04:29N 38°26' W 009°07'0 0.0
2018-Feb-10 03:59N 38°26' W 009°07'0 0.0
2018-Feb-10 03:17N 38°26' W 009°07'0 0.0
2018-Feb-10 02:47N 38°26' W 009°07'0 0.0
2018-Feb-10 02:29N 38°26' W 009°07'0 0.0
2018-Feb-10 01:47N 38°26' W 009°07'0 0.0
2018-Feb-10 01:28N 38°26' W 009°07'0 0.1
2018-Feb-10 00:58N 38°26' W 009°07'0 0.1
2018-Feb-09 23:40N 38°26' W 009°07'0 0.0
2018-Feb-09 23:23N 38°26' W 009°07'0 0.0
2018-Feb-09 22:59N 38°26' W 009°07'0 0.0
2018-Feb-09 22:35N 38°26' W 009°07'  
Track history (hours):
 
Tides and Currents Weather Stations Pressure Air Temp Water Temp Dewpoint Dewpoint Depression Visibility Wind Speed Wind Dir Waves Ship Positions

Dario Filipe

Last reported at 2018-Feb-10 14:53 UTC. Time now 2018-Feb-25 00:19 UTC.
Position N 39°09' W 009°26'.
Warning: this ship's position is 14 days out of date.

Length 24 m.

Type: Fishing. MMSI: 263414640.

Date/timePositionNaut miles runAvg speedWind from/ knotsBaromVisibWave heightAir tempDewpointWater temp
2018-Feb-10 14:53N 39°09' W 009°26'2 6.4
2018-Feb-10 14:30N 39°06' W 009°26'4 6.2
2018-Feb-10 13:51N 39°02' W 009°27'2 6.3
2018-Feb-10 13:30N 39°00' W 009°28'3 6.1
2018-Feb-10 13:00N 38°57' W 009°29'3 5.8
2018-Feb-10 12:30N 38°55' W 009°29'3 5.5
2018-Feb-10 12:00N 38°52' W 009°30'3 5.3
2018-Feb-10 11:30N 38°49' W 009°31'2 5.0
2018-Feb-10 11:01N 38°47' W 009°31'3 5.0
2018-Feb-10 10:29N 38°44' W 009°32'3 5.1
2018-Feb-10 10:00N 38°42' W 009°32'3 5.6
2018-Feb-10 09:30N 38°39' W 009°30'3 6.8
2018-Feb-10 09:00N 38°37' W 009°27'4 7.2
2018-Feb-10 08:30N 38°34' W 009°24'3 6.8
2018-Feb-10 08:00N 38°31' W 009°21'3 6.8
2018-Feb-10 07:30N 38°29' W 009°19'3 6.9
2018-Feb-10 07:00N 38°26' W 009°16'3 6.5
2018-Feb-10 06:29N 38°24' W 009°13'4 7.1
2018-Feb-10 05:53N 38°25' W 009°08'2 4.1
2018-Feb-10 05:29N 38°26' W 009°07'0 0.0
2018-Feb-10 04:57N 38°26' W 009°07'0 0.0
2018-Feb-10 04:29N 38°26' W 009°07'0 0.0
2018-Feb-10 03:59N 38°26' W 009°07'0 0.0
2018-Feb-10 03:17N 38°26' W 009°07'0 0.0
2018-Feb-10 02:47N 38°26' W 009°07'0 0.0
2018-Feb-10 02:29N 38°26' W 009°07'0 0.0
2018-Feb-10 01:47N 38°26' W 009°07'0 0.0
2018-Feb-10 01:28N 38°26' W 009°07'0 0.1
2018-Feb-10 00:58N 38°26' W 009°07'0 0.1
2018-Feb-09 23:40N 38°26' W 009°07'0 0.0
2018-Feb-09 23:23N 38°26' W 009°07'0 0.0
2018-Feb-09 22:59N 38°26' W 009°07'0 0.0
2018-Feb-09 22:35N 38°26' W 009°07'  

Dump ship's entire track history